Terminal Aerodrome Forecast
Issued by NWS Cleveland, OH

Home | Current Version | Previous Version | Graphics & Text | Print | Product List | Glossary Off
Versions: 1 2 3 4 5 6 7 8 9 10 11 12 13 14 15 16 17 18 19 20 21 22 23 24 25 26 27 28

895
FTUS41 KCLE 251354 AAA
TAFCLE
TAF AMD
KCLE 251354Z 2514/2618 25018G30KT P6SM SCT040 BKN100
     FM251800 26020G32KT 6SM -SHRASN BKN025 OVC035
      TEMPO 2519/2522 5SM -SHSN
     FM260000 27015G22KT P6SM OVC025
     FM260500 28012KT P6SM BKN025=

USA.gov is the U.S. government's official web portal to all federal, state and local government web resources and services.